Time;durP1;ratioP1;P1;durP2;ratioP2;P2;SDS_P1;SDS_P2;PMS_P1;PMS_P2;Temp;Humidity;BMP_temperature;BMP_pressure;BME280_temperature;BME280_humidity;BME280_pressure;Samples;Min_cycle;Max_cycle;Signal;HPM_P1;HPM_P2
2022/07/16 00:02:03;;;;;;;7.10;4.53;;;20.20;60.80;;;;;;10570338;28;20227;-85
2022/07/16 00:07:05;;;;;;;5.70;5.20;;;20.20;61.20;;;;;;10564792;28;20199;-85
2022/07/16 00:12:09;;;;;;;4.87;4.47;;;20.20;61.40;;;;;;10582926;28;20249;-85
2022/07/16 00:17:11;;;;;;;5.63;4.60;;;20.10;59.70;;;;;;10563608;28;20211;-84
2022/07/16 00:22:13;;;;;;;6.50;3.87;;;20.10;61.10;;;;;;10563531;28;20215;-85
2022/07/16 00:27:17;;;;;;;4.83;4.43;;;20.00;61.00;;;;;;10543421;28;20289;-85
2022/07/16 00:32:19;;;;;;;5.47;4.97;;;19.90;62.50;;;;;;10560021;28;20693;-85
2022/07/16 00:37:21;;;;;;;7.50;4.80;;;19.90;61.20;;;;;;10580890;28;20215;-85
2022/07/16 00:42:25;;;;;;;4.70;4.30;;;19.80;61.70;;;;;;10546122;28;20222;-85
2022/07/16 00:47:27;;;;;;;6.33;4.47;;;19.80;61.60;;;;;;10546999;28;20634;-84
2022/07/16 00:52:29;;;;;;;5.23;4.70;;;19.80;61.50;;;;;;10545207;28;20227;-83
2022/07/16 00:57:33;;;;;;;4.77;4.37;;;19.70;62.10;;;;;;10563331;28;20625;-83
2022/07/16 01:02:36;;;;;;;4.57;4.17;;;19.70;62.00;;;;;;10559733;28;20244;-83
2022/07/16 01:07:39;;;;;;;5.03;4.63;;;19.70;62.40;;;;;;10583734;28;20248;-83
2022/07/16 01:12:43;;;;;;;7.43;4.17;;;19.60;62.50;;;;;;10566596;28;20229;-83
2022/07/16 01:17:45;;;;;;;7.37;4.60;;;19.60;61.40;;;;;;10548913;28;20219;-83
2022/07/16 01:22:47;;;;;;;4.20;3.77;;;19.60;61.70;;;;;;10549726;28;20903;-83
2022/07/16 01:27:51;;;;;;;4.60;4.20;;;19.50;62.40;;;;;;10565914;28;20219;-83
2022/07/16 01:32:53;;;;;;;6.23;4.00;;;19.50;62.60;;;;;;10586142;28;20247;-82
2022/07/16 01:37:55;;;;;;;4.47;4.07;;;19.50;62.70;;;;;;10561599;28;20211;-83
2022/07/16 01:42:58;;;;;;;4.37;4.07;;;19.40;61.70;;;;;;10569574;28;20310;-83
2022/07/16 01:48:00;;;;;;;4.33;3.93;;;19.40;61.60;;;;;;10546324;28;20430;-82
2022/07/16 01:53:03;;;;;;;4.17;3.80;;;19.40;62.50;;;;;;10561725;28;20233;-85
2022/07/16 01:58:09;;;;;;;5.53;3.97;;;19.40;61.90;;;;;;10539187;28;20314;-83
2022/07/16 02:03:12;;;;;;;4.50;4.10;;;19.30;61.90;;;;;;10543317;28;20582;-83
2022/07/16 02:08:14;;;;;;;4.93;3.70;;;19.20;63.20;;;;;;10578581;28;20226;-83
2022/07/16 02:13:18;;;;;;;4.97;3.53;;;19.20;63.30;;;;;;10578178;28;20237;-83
2022/07/16 02:18:20;;;;;;;3.33;3.03;;;19.20;62.70;;;;;;10558633;28;20314;-83
2022/07/16 02:23:22;;;;;;;3.83;3.63;;;19.10;62.00;;;;;;10542396;28;20226;-83
2022/07/16 02:28:26;;;;;;;4.50;4.10;;;19.10;62.60;;;;;;10541828;28;20230;-83
2022/07/16 02:33:28;;;;;;;4.50;4.10;;;19.00;62.40;;;;;;10542434;28;20226;-83
2022/07/16 02:38:30;;;;;;;4.83;4.03;;;19.00;63.00;;;;;;10542130;28;20203;-83
2022/07/16 02:43:34;;;;;;;4.27;3.97;;;19.00;62.30;;;;;;10541720;28;20602;-83
2022/07/16 02:48:36;;;;;;;3.97;3.67;;;19.00;61.70;;;;;;10558710;28;20195;-83
2022/07/16 02:53:39;;;;;;;4.10;3.70;;;19.00;62.00;;;;;;10541229;28;20550;-83
2022/07/16 02:58:42;;;;;;;4.10;3.80;;;18.90;62.90;;;;;;10541868;28;20215;-83
2022/07/16 03:03:44;;;;;;;3.80;3.50;;;18.90;63.70;;;;;;10548843;28;20252;-83
2022/07/16 03:08:47;;;;;;;4.20;3.80;;;18.80;61.90;;;;;;10549308;28;20215;-83
2022/07/16 03:13:50;;;;;;;3.97;3.40;;;18.80;61.40;;;;;;10566567;28;20196;-83
2022/07/16 03:18:52;;;;;;;4.10;3.80;;;18.70;61.40;;;;;;10566010;28;20250;-83
2022/07/16 03:23:54;;;;;;;3.97;3.67;;;18.70;63.60;;;;;;10566676;28;20233;-83
2022/07/16 03:28:58;;;;;;;3.97;3.57;;;18.70;62.20;;;;;;10558954;28;20385;-83
2022/07/16 03:34:00;;;;;;;4.33;3.93;;;18.70;62.90;;;;;;10566870;28;20238;-83
2022/07/16 03:39:03;;;;;;;3.87;3.57;;;18.60;62.50;;;;;;10566099;28;20690;-83
2022/07/16 03:44:09;;;;;;;3.67;3.40;;;18.60;62.10;;;;;;10565827;28;20199;-83
2022/07/16 03:49:12;;;;;;;3.70;3.50;;;18.60;62.30;;;;;;10550830;28;20223;-83
2022/07/16 03:54:14;;;;;;;3.50;3.20;;;18.60;63.40;;;;;;10567296;28;20226;-83
2022/07/16 03:59:17;;;;;;;3.87;3.57;;;18.60;62.10;;;;;;10566015;28;20253;-83
2022/07/16 04:04:19;;;;;;;3.37;3.17;;;18.60;63.20;;;;;;10566533;28;20227;-83
2022/07/16 04:09:21;;;;;;;3.70;3.40;;;18.60;62.70;;;;;;10547070;28;20268;-83
2022/07/16 04:14:25;;;;;;;3.80;3.50;;;18.60;61.20;;;;;;10546558;28;20579;-83
2022/07/16 04:19:27;;;;;;;5.40;3.33;;;18.50;63.20;;;;;;10548195;28;20222;-83
2022/07/16 04:24:29;;;;;;;3.47;3.13;;;18.50;61.40;;;;;;10547162;28;20195;-83
2022/07/16 04:29:33;;;;;;;3.53;3.23;;;18.50;62.50;;;;;;10562839;28;20314;-83
2022/07/16 04:34:35;;;;;;;5.17;3.40;;;18.50;63.60;;;;;;10569705;28;20191;-84
2022/07/16 04:39:37;;;;;;;3.50;3.23;;;18.50;64.10;;;;;;10587729;28;20255;-84
2022/07/16 04:44:41;;;;;;;4.00;3.70;;;18.50;63.20;;;;;;10554807;28;20735;-84
2022/07/16 04:49:43;;;;;;;3.17;2.97;;;18.50;63.40;;;;;;10577275;28;20227;-84
2022/07/16 04:54:45;;;;;;;4.83;3.17;;;18.50;63.80;;;;;;10560717;28;20259;-83
2022/07/16 04:59:48;;;;;;;3.50;3.20;;;18.50;64.60;;;;;;10560255;28;20227;-81
2022/07/16 05:04:50;;;;;;;5.87;3.40;;;18.50;65.50;;;;;;10570306;28;20203;-81
2022/07/16 05:09:52;;;;;;;6.03;3.33;;;18.60;65.40;;;;;;10588797;28;20682;-82
2022/07/16 05:14:56;;;;;;;3.70;3.50;;;18.60;66.00;;;;;;10553220;28;20210;-82
2022/07/16 05:19:58;;;;;;;4.53;3.90;;;18.60;64.50;;;;;;10568917;28;20695;-82
2022/07/16 05:25:00;;;;;;;3.70;3.40;;;18.70;65.70;;;;;;10553227;28;20266;-82
2022/07/16 05:30:05;;;;;;;3.60;3.30;;;18.70;66.30;;;;;;10585496;28;20349;-82
2022/07/16 05:35:08;;;;;;;4.90;3.47;;;18.70;65.70;;;;;;10566765;28;20191;-83
2022/07/16 05:40:11;;;;;;;3.70;3.40;;;18.80;64.70;;;;;;10566759;28;20219;-83
2022/07/16 05:45:15;;;;;;;4.73;3.37;;;18.80;65.10;;;;;;10584714;28;20194;-82
2022/07/16 05:50:17;;;;;;;3.60;3.30;;;18.90;64.60;;;;;;10550268;28;20229;-83
2022/07/16 05:55:19;;;;;;;3.30;3.07;;;18.90;65.20;;;;;;10566673;28;20221;-82
2022/07/16 06:00:23;;;;;;;4.70;3.60;;;18.90;65.00;;;;;;10576109;28;20222;-83
2022/07/16 06:05:26;;;;;;;5.10;3.67;;;19.00;66.10;;;;;;10567566;28;20210;-83
2022/07/16 06:10:28;;;;;;;5.20;3.70;;;19.10;65.40;;;;;;10579934;28;20533;-83
2022/07/16 06:15:32;;;;;;;8.50;7.70;;;19.20;64.10;;;;;;10598019;28;20199;-82
2022/07/16 06:20:34;;;;;;;7.10;5.80;;;19.30;63.70;;;;;;10579514;28;20295;-83
2022/07/16 06:25:37;;;;;;;6.00;5.50;;;19.40;63.10;;;;;;10579386;28;20199;-82
2022/07/16 06:30:41;;;;;;;4.73;4.23;;;19.50;62.50;;;;;;10579845;28;20755;-84
2022/07/16 06:35:43;;;;;;;4.70;4.30;;;19.70;63.80;;;;;;10582013;28;20244;-83
2022/07/16 06:40:46;;;;;;;4.77;4.20;;;19.90;62.50;;;;;;10589958;28;20273;-83
2022/07/16 06:45:50;;;;;;;4.90;4.50;;;20.10;63.00;;;;;;10609093;28;20262;-84
2022/07/16 06:50:53;;;;;;;5.20;4.70;;;20.40;63.40;;;;;;10547004;22;20248;-80
2022/07/16 06:55:55;;;;;;;5.47;4.20;;;20.80;61.20;;;;;;10469907;28;20297;-80
2022/07/16 07:00:59;;;;;;;4.40;4.00;;;21.20;61.90;;;;;;10490560;28;20224;-80
2022/07/16 07:06:01;;;;;;;4.03;3.50;;;21.60;61.20;;;;;;10506286;28;20215;-80
2022/07/16 07:11:04;;;;;;;4.13;3.47;;;21.90;59.70;;;;;;10494926;28;20235;-79
2022/07/16 07:16:07;;;;;;;3.67;3.47;;;22.20;57.60;;;;;;10503145;28;20231;-80
2022/07/16 07:21:09;;;;;;;3.37;3.17;;;22.50;57.10;;;;;;10503323;28;20274;-80
2022/07/16 07:26:11;;;;;;;3.70;3.50;;;22.80;56.50;;;;;;10504954;28;20212;-80
2022/07/16 07:31:15;;;;;;;5.63;3.63;;;23.10;57.00;;;;;;10499888;28;20216;-80
2022/07/16 07:36:17;;;;;;;5.00;3.83;;;23.50;55.30;;;;;;10500754;28;20201;-81
2022/07/16 07:41:19;;;;;;;3.83;3.53;;;23.90;54.70;;;;;;10505756;28;20583;-80
2022/07/16 07:46:23;;;;;;;4.67;4.27;;;24.20;53.60;;;;;;10503322;28;20212;-80
2022/07/16 07:51:25;;;;;;;3.47;3.27;;;24.60;54.30;;;;;;10504904;28;20293;-80
2022/07/16 07:56:27;;;;;;;3.80;3.50;;;25.00;53.30;;;;;;10489345;28;20279;-80
2022/07/16 08:01:30;;;;;;;3.40;3.10;;;25.40;53.20;;;;;;10500489;28;20224;-81
2022/07/16 08:06:32;;;;;;;3.13;2.93;;;25.90;51.70;;;;;;10500807;28;20283;-80
2022/07/16 08:11:34;;;;;;;4.57;2.93;;;26.50;51.10;;;;;;10503005;28;20710;-80
2022/07/16 08:16:38;;;;;;;3.30;3.00;;;27.00;50.00;;;;;;10501168;28;20239;-81
2022/07/16 08:21:40;;;;;;;3.03;2.83;;;27.50;49.00;;;;;;10503912;28;20247;-80
2022/07/16 08:26:42;;;;;;;3.00;2.80;;;27.90;46.80;;;;;;10480882;28;20200;-80
2022/07/16 08:31:46;;;;;;;2.57;2.47;;;28.30;46.10;;;;;;10481812;28;20268;-80
2022/07/16 08:36:48;;;;;;;3.10;2.40;;;28.70;45.20;;;;;;10500869;28;20803;-80
2022/07/16 08:41:51;;;;;;;3.57;2.80;;;29.00;45.80;;;;;;10484213;28;20232;-80
2022/07/16 08:46:56;;;;;;;5.00;3.00;;;29.30;44.60;;;;;;10502716;28;20269;-81
2022/07/16 08:52:02;;;;;;;2.97;2.70;;;29.60;43.70;;;;;;10497864;28;20771;-81
2022/07/16 08:57:04;;;;;;;3.30;3.10;;;29.80;43.40;;;;;;10500599;28;20273;-81
2022/07/16 09:02:08;;;;;;;2.30;2.20;;;30.00;43.50;;;;;;10495137;28;20284;-80
2022/07/16 09:07:13;;;;;;;2.50;2.30;;;30.10;43.00;;;;;;10501523;28;20226;-79
2022/07/16 09:12:33;;;;;;;2.67;2.50;;;30.40;41.90;;;;;;10495580;28;20224;-81
2022/07/16 09:17:37;;;;;;;2.70;2.50;;;30.60;42.40;;;;;;10495547;28;20200;-82
2022/07/16 09:22:39;;;;;;;2.70;2.50;;;30.80;40.50;;;;;;10493197;28;20224;-79
2022/07/16 09:27:41;;;;;;;2.77;2.57;;;31.00;41.40;;;;;;10492974;28;20228;-78
2022/07/16 09:32:45;;;;;;;2.23;2.13;;;31.10;41.00;;;;;;10498675;28;20209;-83
2022/07/16 09:37:49;;;;;;;2.33;2.13;;;31.30;39.80;;;;;;10494862;28;20201;-83
2022/07/16 09:42:51;;;;;;;2.40;2.30;;;31.40;40.00;;;;;;10479067;28;20227;-84
2022/07/16 09:47:55;;;;;;;3.43;3.20;;;31.60;40.10;;;;;;10480177;28;20668;-83
2022/07/16 09:53:12;;;;;;;3.33;2.50;;;32.00;40.00;;;;;;10483271;28;20227;-83
2022/07/16 09:58:14;;;;;;;2.10;1.97;;;32.50;39.90;;;;;;10502710;28;20195;-82
2022/07/16 10:03:19;;;;;;;4.10;2.77;;;33.00;38.90;;;;;;10496793;28;20258;-83
2022/07/16 10:08:22;;;;;;;2.50;2.30;;;33.90;36.90;;;;;;10498773;28;20199;-84
2022/07/16 10:13:26;;;;;;;2.70;2.50;;;34.80;37.30;;;;;;10479996;28;20262;-83
2022/07/16 10:18:35;;;;;;;1.40;1.30;;;35.00;36.50;;;;;;10501289;28;20196;-83
2022/07/16 10:23:39;;;;;;;2.70;2.50;;;34.90;36.50;;;;;;10502623;28;20227;-83
2022/07/16 10:28:45;;;;;;;2.30;1.73;;;34.90;37.00;;;;;;10499442;28;20237;-84
2022/07/16 10:34:39;;;;;;;2.70;2.40;;;34.00;36.90;;;;;;10480778;28;20232;-82
2022/07/16 10:40:00;;;;;;;2.43;2.27;;;32.60;37.70;;;;;;10501472;28;20596;-80
2022/07/16 10:45:03;;;;;;;2.53;2.30;;;31.20;39.60;;;;;;10512367;28;20266;-80
2022/07/16 10:50:16;;;;;;;2.83;2.30;;;30.20;39.90;;;;;;10494257;28;20260;-80
2022/07/16 10:55:34;;;;;;;4.37;2.63;;;29.30;40.40;;;;;;10474481;28;20208;-81
2022/07/16 11:00:36;;;;;;;2.77;2.57;;;28.60;41.70;;;;;;10494561;28;20232;-80
2022/07/16 11:05:42;;;;;;;6.27;3.27;;;28.10;41.70;;;;;;10497361;28;20200;-80
2022/07/16 11:10:45;;;;;;;2.60;2.20;;;27.60;42.10;;;;;;10495152;28;20661;-80
2022/07/16 11:15:48;;;;;;;2.37;2.07;;;27.20;43.20;;;;;;10490567;28;20204;-79
2022/07/16 11:20:52;;;;;;;2.57;2.47;;;26.90;42.70;;;;;;10479693;28;20303;-80
2022/07/16 11:25:55;;;;;;;2.83;2.43;;;26.60;45.00;;;;;;10500380;28;20709;-79
2022/07/16 11:31:05;;;;;;;2.50;2.33;;;26.40;45.00;;;;;;10500598;28;20221;-80
2022/07/16 11:36:13;;;;;;;3.40;2.40;;;26.20;46.10;;;;;;10484195;28;20197;-83
2022/07/16 11:41:16;;;;;;;2.77;2.57;;;26.20;45.10;;;;;;10500406;28;20243;-83
2022/07/16 11:46:24;;;;;;;2.63;2.43;;;26.00;46.20;;;;;;10502896;28;20224;-83
2022/07/16 11:51:28;;;;;;;4.07;2.47;;;25.90;44.50;;;;;;10503373;28;20231;-81
2022/07/16 11:56:35;;;;;;;2.50;2.40;;;25.80;43.20;;;;;;10485756;28;20575;-83
2022/07/16 12:01:38;;;;;;;2.60;2.40;;;25.70;44.10;;;;;;10486673;28;20228;-81
2022/07/16 12:06:47;;;;;;;2.83;2.30;;;25.60;45.50;;;;;;10500125;28;20205;-83
2022/07/16 12:11:59;;;;;;;2.60;2.40;;;25.60;44.20;;;;;;10502642;28;20212;-82
2022/07/16 12:17:01;;;;;;;3.33;2.27;;;25.60;45.10;;;;;;10504436;28;20664;-83
2022/07/16 12:22:05;;;;;;;2.90;2.00;;;25.50;45.20;;;;;;10490808;28;20224;-83
2022/07/16 12:27:07;;;;;;;2.23;1.97;;;25.50;45.90;;;;;;10498232;28;20207;-83
2022/07/16 12:32:11;;;;;;;2.10;1.93;;;25.60;44.90;;;;;;10481244;28;20303;-83
2022/07/16 12:37:15;;;;;;;2.53;2.33;;;25.50;46.00;;;;;;10500647;28;20212;-83
2022/07/16 12:42:17;;;;;;;3.40;2.87;;;25.50;48.00;;;;;;10512304;28;20224;-83
2022/07/16 12:47:19;;;;;;;2.67;2.47;;;25.50;47.40;;;;;;10484438;28;20204;-83
2022/07/16 12:52:23;;;;;;;2.00;1.90;;;25.60;46.70;;;;;;10525689;22;20232;-80
2022/07/16 13:02:45;;;;;;;2.40;2.20;;;25.70;46.50;;;;;;10503295;28;20640;-81
2022/07/16 13:07:49;;;;;;;2.10;1.83;;;25.70;46.60;;;;;;10497463;28;20200;-80
2022/07/16 13:12:51;;;;;;;2.40;2.30;;;25.70;45.90;;;;;;10490386;28;20246;-79
2022/07/16 13:17:53;;;;;;;2.00;1.90;;;25.70;46.10;;;;;;10505408;28;20295;-79
2022/07/16 13:22:56;;;;;;;2.13;2.03;;;25.70;46.10;;;;;;10505425;28;20385;-79
2022/07/16 13:27:59;;;;;;;2.20;2.10;;;25.80;44.90;;;;;;10518177;28;20269;-80
2022/07/16 13:33:01;;;;;;;2.30;2.20;;;25.80;44.50;;;;;;10527667;28;20707;-81
2022/07/16 13:38:04;;;;;;;2.23;2.13;;;25.80;45.00;;;;;;10511867;28;20200;-81
2022/07/16 13:43:07;;;;;;;2.23;2.13;;;25.80;44.30;;;;;;10508566;28;20224;-81
2022/07/16 13:48:10;;;;;;;1.90;1.80;;;25.80;45.60;;;;;;10486744;28;20291;-80
2022/07/16 13:53:14;;;;;;;2.40;2.20;;;25.80;45.90;;;;;;10503260;28;20614;-78
2022/07/16 13:58:17;;;;;;;2.40;2.20;;;25.80;45.70;;;;;;10534993;28;20230;-79
2022/07/16 14:03:21;;;;;;;4.73;2.27;;;25.80;46.30;;;;;;10520129;28;20222;-80
2022/07/16 14:08:25;;;;;;;2.33;2.23;;;25.90;45.60;;;;;;10522046;28;20250;-79
2022/07/16 14:13:27;;;;;;;2.73;2.53;;;25.90;45.10;;;;;;10505355;28;20222;-81
2022/07/16 14:18:30;;;;;;;3.50;2.80;;;25.90;46.20;;;;;;10486236;28;20201;-80
2022/07/16 14:23:34;;;;;;;5.50;2.73;;;25.90;45.30;;;;;;10507769;28;20228;-80
2022/07/16 14:28:36;;;;;;;4.87;2.40;;;26.00;45.40;;;;;;10499870;28;20195;-81
2022/07/16 14:33:40;;;;;;;2.53;2.40;;;26.00;45.60;;;;;;10522420;28;20309;-81
2022/07/16 14:38:43;;;;;;;2.20;2.10;;;26.00;46.20;;;;;;10508102;28;20203;-81
2022/07/16 14:43:52;;;;;;;2.50;2.40;;;26.00;46.60;;;;;;10470937;28;20228;-80
2022/07/16 14:48:55;;;;;;;2.60;2.50;;;26.00;45.70;;;;;;10487647;28;20197;-82
2022/07/16 14:53:58;;;;;;;2.70;2.50;;;26.00;45.90;;;;;;10485567;28;20260;-82
2022/07/16 14:59:01;;;;;;;2.50;2.30;;;26.00;45.70;;;;;;10491689;28;20250;-81
2022/07/16 15:04:03;;;;;;;2.60;2.40;;;25.90;46.10;;;;;;10512134;28;20231;-82
2022/07/16 15:09:07;;;;;;;2.67;2.47;;;25.90;45.70;;;;;;10522390;28;20220;-80
2022/07/16 15:14:09;;;;;;;3.03;2.80;;;25.80;45.90;;;;;;10485079;28;20228;-82
2022/07/16 15:19:11;;;;;;;3.27;2.83;;;25.80;46.20;;;;;;10511932;28;20588;-81
2022/07/16 15:24:15;;;;;;;3.40;2.77;;;25.80;46.30;;;;;;10538036;28;20235;-82
2022/07/16 15:29:17;;;;;;;1.97;1.87;;;25.80;45.90;;;;;;10511362;28;20200;-80
2022/07/16 15:34:19;;;;;;;2.27;2.17;;;25.80;47.00;;;;;;10499541;28;20220;-79
2022/07/16 15:39:22;;;;;;;6.80;2.93;;;25.80;46.50;;;;;;10508046;28;20204;-79
2022/07/16 15:44:24;;;;;;;2.93;2.40;;;25.80;46.70;;;;;;10505730;28;20285;-80
2022/07/16 15:49:27;;;;;;;3.00;2.13;;;25.80;47.30;;;;;;10502513;28;20215;-80
2022/07/16 15:54:31;;;;;;;2.60;2.40;;;25.80;46.70;;;;;;10526019;28;20204;-80
2022/07/16 15:59:34;;;;;;;2.87;2.57;;;25.70;47.10;;;;;;10537576;28;20238;-79
2022/07/16 16:04:36;;;;;;;2.83;2.63;;;25.70;46.70;;;;;;10535134;28;20266;-79
2022/07/16 16:09:39;;;;;;;2.37;2.20;;;25.60;47.10;;;;;;10502635;28;20266;-79
2022/07/16 16:14:41;;;;;;;2.20;2.10;;;25.70;46.90;;;;;;10484457;28;20283;-79
2022/07/16 16:19:43;;;;;;;3.10;2.40;;;25.70;48.10;;;;;;10500031;28;20646;-79
2022/07/16 16:24:47;;;;;;;2.13;1.93;;;25.70;46.60;;;;;;10506505;28;20227;-80
2022/07/16 16:29:49;;;;;;;2.97;2.30;;;25.60;46.90;;;;;;10486629;28;20216;-79
2022/07/16 16:34:51;;;;;;;2.50;2.30;;;25.60;46.10;;;;;;10483904;28;20324;-79
2022/07/16 16:39:55;;;;;;;2.70;2.50;;;25.60;46.10;;;;;;10522047;28;20212;-78
2022/07/16 16:44:57;;;;;;;3.03;2.70;;;25.60;46.30;;;;;;10540991;28;20199;-79
2022/07/16 16:49:59;;;;;;;2.40;2.20;;;25.60;46.40;;;;;;10535039;28;20624;-80
2022/07/16 16:55:03;;;;;;;7.33;3.20;;;25.60;47.40;;;;;;10535774;28;20204;-79
2022/07/16 17:00:07;;;;;;;3.40;3.07;;;25.20;53.40;;;;;;10537194;28;20744;-80
2022/07/16 17:05:10;;;;;;;3.10;2.80;;;24.50;53.80;;;;;;10529804;28;20211;-79
2022/07/16 17:10:13;;;;;;;2.80;2.60;;;24.30;52.50;;;;;;10486716;28;20587;-80
2022/07/16 17:15:16;;;;;;;4.83;2.70;;;24.40;52.50;;;;;;10503265;28;20748;-79
2022/07/16 17:20:18;;;;;;;3.43;3.17;;;24.50;51.10;;;;;;10501562;28;20221;-80
2022/07/16 17:25:21;;;;;;;5.37;2.60;;;24.70;50.20;;;;;;10503744;28;20234;-82
2022/07/16 17:30:23;;;;;;;3.03;2.73;;;24.80;49.50;;;;;;10484366;28;20262;-81
2022/07/16 17:35:25;;;;;;;3.20;3.00;;;24.90;49.30;;;;;;10504347;28;20283;-80
2022/07/16 17:40:29;;;;;;;3.00;2.80;;;24.90;50.20;;;;;;10510072;28;20251;-81
2022/07/16 17:45:31;;;;;;;3.27;3.03;;;24.90;50.30;;;;;;10535900;28;20251;-82
2022/07/16 17:50:34;;;;;;;3.17;2.87;;;25.00;49.10;;;;;;10539208;28;20224;-82
2022/07/16 17:55:38;;;;;;;3.60;3.10;;;25.00;49.50;;;;;;10519508;28;20220;-80
2022/07/16 18:00:40;;;;;;;4.13;3.27;;;25.00;50.10;;;;;;10534148;28;20224;-82
2022/07/16 18:05:44;;;;;;;2.90;2.70;;;25.00;48.80;;;;;;10528181;28;20201;-82
2022/07/16 18:10:47;;;;;;;3.00;2.80;;;25.00;49.30;;;;;;10484582;28;20634;-82
2022/07/16 18:15:50;;;;;;;3.50;3.30;;;25.00;49.70;;;;;;10503864;28;20233;-79
2022/07/16 18:20:52;;;;;;;5.20;3.40;;;24.90;49.90;;;;;;10528472;28;20330;-79
2022/07/16 18:25:55;;;;;;;5.10;3.10;;;24.80;50.00;;;;;;10524852;28;20193;-79
2022/07/16 18:30:58;;;;;;;2.90;2.70;;;24.80;49.70;;;;;;10529944;28;20239;-81
2022/07/16 18:36:02;;;;;;;2.93;2.73;;;24.70;50.40;;;;;;10533714;28;20200;-81
2022/07/16 18:41:06;;;;;;;2.60;2.40;;;24.70;51.60;;;;;;10472765;28;20258;-82
2022/07/16 18:46:08;;;;;;;4.40;3.60;;;24.60;49.70;;;;;;10512106;28;20249;-82
2022/07/16 18:51:10;;;;;;;3.47;3.20;;;24.60;49.70;;;;;;10532512;28;20220;-80
2022/07/16 18:56:13;;;;;;;4.93;3.67;;;24.50;49.80;;;;;;10512252;28;20200;-79
2022/07/16 19:01:16;;;;;;;3.60;3.40;;;24.40;50.30;;;;;;10511347;28;20235;-79
2022/07/16 19:06:18;;;;;;;4.23;3.07;;;24.40;50.60;;;;;;10504723;28;20207;-79
2022/07/16 19:11:22;;;;;;;5.83;3.27;;;24.30;50.70;;;;;;10513529;28;20635;-80
2022/07/16 19:16:24;;;;;;;3.77;3.57;;;24.30;50.40;;;;;;10497104;28;20192;-79
2022/07/16 19:21:27;;;;;;;4.00;3.67;;;24.20;51.70;;;;;;10494265;28;20258;-80
2022/07/16 19:26:32;;;;;;;3.33;3.13;;;24.20;52.90;;;;;;10493106;28;20216;-79
2022/07/16 19:31:34;;;;;;;3.00;2.90;;;24.10;53.20;;;;;;10503694;28;20334;-79
2022/07/16 19:36:37;;;;;;;2.70;2.60;;;24.00;52.00;;;;;;10506337;28;20276;-80
2022/07/16 19:41:40;;;;;;;3.83;3.53;;;24.00;50.40;;;;;;10478596;28;20224;-79
2022/07/16 19:46:42;;;;;;;4.83;4.43;;;23.90;52.10;;;;;;10505829;28;20432;-82
2022/07/16 19:51:44;;;;;;;4.57;3.60;;;23.80;52.20;;;;;;10511383;28;20257;-78
2022/07/16 20:02:09;;;;;;;4.37;4.00;;;23.50;52.90;;;;;;10504319;28;20478;-79
2022/07/16 20:07:11;;;;;;;4.17;3.57;;;23.30;53.30;;;;;;10497115;28;20577;-79
2022/07/16 20:12:14;;;;;;;3.80;3.50;;;23.20;52.50;;;;;;10539154;28;20216;-80
2022/07/16 20:17:17;;;;;;;5.37;4.53;;;23.10;53.30;;;;;;10501238;28;20208;-79
2022/07/16 20:22:19;;;;;;;5.20;4.73;;;22.90;53.80;;;;;;10484670;28;20315;-80
2022/07/16 20:27:23;;;;;;;5.40;4.93;;;22.80;54.10;;;;;;10506349;28;20207;-80
2022/07/16 20:32:25;;;;;;;6.53;5.50;;;22.80;54.80;;;;;;10485935;28;20711;-80
2022/07/16 20:37:27;;;;;;;6.83;5.67;;;22.70;54.80;;;;;;10514984;28;20220;-82
2022/07/16 20:42:30;;;;;;;7.00;6.30;;;22.60;55.00;;;;;;10544061;28;20255;-82
2022/07/16 20:47:33;;;;;;;5.90;5.17;;;22.50;55.30;;;;;;10511739;28;20231;-80
2022/07/16 20:52:35;;;;;;;6.07;5.57;;;22.40;54.70;;;;;;10535808;28;20227;-80
2022/07/16 20:57:38;;;;;;;8.67;5.50;;;22.40;55.50;;;;;;10498938;28;20197;-79
2022/07/16 21:02:41;;;;;;;5.97;5.07;;;22.30;55.50;;;;;;10523607;28;20227;-82
2022/07/16 21:07:43;;;;;;;6.13;5.50;;;22.20;55.40;;;;;;10524291;28;20243;-80
2022/07/16 21:12:47;;;;;;;5.33;4.83;;;22.10;55.60;;;;;;10507605;28;20221;-81
2022/07/16 21:17:49;;;;;;;6.53;5.30;;;22.10;56.50;;;;;;10542593;28;20204;-78
2022/07/16 21:22:51;;;;;;;6.67;4.47;;;22.10;56.30;;;;;;10511511;28;20278;-79
2022/07/16 21:27:54;;;;;;;9.50;5.20;;;22.00;56.30;;;;;;10511327;28;20278;-79
2022/07/16 21:32:57;;;;;;;7.30;4.60;;;22.00;56.60;;;;;;10515861;28;20208;-79
2022/07/16 21:37:59;;;;;;;5.57;5.07;;;21.90;57.30;;;;;;10528478;28;20192;-80
2022/07/16 21:43:03;;;;;;;5.27;4.40;;;21.90;56.50;;;;;;10518279;28;20250;-80
2022/07/16 21:48:06;;;;;;;6.57;4.80;;;21.80;57.40;;;;;;10530796;28;20196;-80
2022/07/16 21:53:08;;;;;;;5.10;4.80;;;21.80;57.10;;;;;;10517322;28;20250;-80
2022/07/16 21:58:12;;;;;;;4.60;4.20;;;21.80;57.30;;;;;;10524484;28;20207;-80
2022/07/16 22:03:14;;;;;;;5.03;4.63;;;21.70;57.40;;;;;;10527730;28;20230;-79
2022/07/16 22:08:16;;;;;;;6.33;4.53;;;21.70;58.10;;;;;;10532031;28;20200;-81
2022/07/16 22:13:19;;;;;;;6.10;5.60;;;21.70;58.20;;;;;;10540440;28;20265;-80
2022/07/16 22:18:23;;;;;;;6.33;4.17;;;21.60;57.80;;;;;;10546139;28;20202;-79
2022/07/16 22:23:27;;;;;;;4.50;4.10;;;21.60;57.40;;;;;;10519448;28;20284;-79
2022/07/16 22:28:30;;;;;;;4.83;4.50;;;21.60;57.70;;;;;;10522712;28;20242;-80
2022/07/16 22:33:32;;;;;;;4.67;4.27;;;21.40;57.40;;;;;;10504982;28;20212;-78
2022/07/16 22:38:34;;;;;;;4.67;4.27;;;21.40;58.50;;;;;;10507638;28;20215;-79
2022/07/16 22:43:38;;;;;;;4.90;4.47;;;21.30;58.50;;;;;;10544628;28;20228;-79
2022/07/16 22:48:40;;;;;;;7.30;4.43;;;21.30;58.10;;;;;;10547378;28;20211;-80
2022/07/16 22:53:42;;;;;;;4.80;4.40;;;21.20;59.20;;;;;;10547533;28;20250;-79
2022/07/16 22:58:46;;;;;;;5.00;4.50;;;21.20;59.50;;;;;;10546785;28;20204;-80
2022/07/16 23:03:48;;;;;;;6.00;5.40;;;21.10;59.40;;;;;;10520190;28;20250;-80
2022/07/16 23:08:50;;;;;;;5.60;5.07;;;21.10;59.30;;;;;;10523232;28;20200;-80
2022/07/16 23:13:54;;;;;;;5.93;4.47;;;21.10;59.70;;;;;;10527004;28;20216;-78
2022/07/16 23:18:56;;;;;;;8.10;4.70;;;21.00;59.30;;;;;;10540958;28;20538;-80
2022/07/16 23:23:58;;;;;;;5.50;4.70;;;21.00;59.60;;;;;;10552759;28;20227;-80
2022/07/16 23:29:02;;;;;;;5.60;5.20;;;20.90;59.90;;;;;;10538133;28;20255;-80
2022/07/16 23:34:04;;;;;;;6.00;5.40;;;20.90;59.20;;;;;;10550774;28;20273;-79
2022/07/16 23:39:06;;;;;;;4.63;4.23;;;20.80;59.80;;;;;;10524122;28;20668;-79
2022/07/16 23:44:09;;;;;;;7.00;4.50;;;20.80;59.80;;;;;;10539470;28;20246;-80
2022/07/16 23:49:11;;;;;;;5.60;5.17;;;20.80;60.40;;;;;;10522800;28;20217;-81
2022/07/16 23:54:14;;;;;;;5.60;4.00;;;20.70;61.10;;;;;;10556373;28;20223;-81
2022/07/16 23:59:18;;;;;;;4.27;3.97;;;20.70;60.60;;;;;;10556606;28;20229;-81
